Neenah, Wisconsin
Current Conditions -  °F | °C
As of 4:45 PM on Saturday 25 Oct 2014 (Local Time) from KATW Reporting Station
Clear Clear  
Wind Chill: 61°   Ceiling: Unl
Heat Index: 61°   Visibility: 10mi
Dew Point: 28°   Wind: 20mph
Humidity: 29%   Direction: 270°W
Pressure: 29.86"   Gusts: 28mph
Location:  44.19°N, 88.46°W
Report Text: KATW 252145Z 27017G24KT 10SM SKC 16/M02 A2986
Loading
Personal Weather Stations






























Interactive Weather Map
Tropical Storm Tracking
New forecast layout! Learn more

10-Day Weather Forecast

Advertisements
Track Severe Weather on mobile